Terminal Aerodrome Forecast
Issued by NWS Cleveland, OH

Home | Current Version | Previous Version | Graphics & Text | Print | Product List | Glossary On
Versions: 1 2 3 4 5 6 7 8 9 10 11 12 13 14 15 16 17 18 19 20 21 22 23 24 25 26
000
FTUS41 KCLE 251900 AAA
TAFERI
TAF AMD
KERI 251929Z 2519/2618 20014G22KT P6SM BKN025 OVC040
      TEMPO 2520/2524 SCT025 BKN040
     FM260000 23009KT P6SM SCT030 BKN250
     FM261000 VRB03KT P6SM SCT015 OVC120
     FM261400 VRB04KT 3SM -SHRA BR BKN009 OVC020=

USA.gov is the U.S. government's official web portal to all federal, state and local government web resources and services.